sensor_id;sensor_type;location;lat;lon;timestamp;P1;durP1;ratioP1;P2;durP2;ratioP2
50745;SDS011;36711;51.972;21.204;2022-12-15T00:00:23;18.10;;;9.40;;
50745;SDS011;36711;51.972;21.204;2022-12-15T00:03:27;19.80;;;8.90;;
50745;SDS011;36711;51.972;21.204;2022-12-15T00:06:14;17.60;;;8.30;;
50745;SDS011;36711;51.972;21.204;2022-12-15T00:09:02;18.70;;;8.90;;
50745;SDS011;36711;51.972;21.204;2022-12-15T00:11:58;18.80;;;8.20;;
50745;SDS011;36711;51.972;21.204;2022-12-15T00:14:46;17.50;;;7.90;;
50745;SDS011;36711;51.972;21.204;2022-12-15T00:17:33;19.40;;;8.80;;
50745;SDS011;36711;51.972;21.204;2022-12-15T00:20:20;16.50;;;8.10;;
50745;SDS011;36711;51.972;21.204;2022-12-15T00:23:08;17.50;;;7.70;;
50745;SDS011;36711;51.972;21.204;2022-12-15T00:25:56;18.20;;;9.20;;
50745;SDS011;36711;51.972;21.204;2022-12-15T00:28:43;17.30;;;8.40;;
50745;SDS011;36711;51.972;21.204;2022-12-15T00:31:31;22.50;;;9.10;;
50745;SDS011;36711;51.972;21.204;2022-12-15T00:34:19;17.30;;;8.90;;
50745;SDS011;36711;51.972;21.204;2022-12-15T00:37:06;19.20;;;8.60;;
50745;SDS011;36711;51.972;21.204;2022-12-15T00:39:53;16.40;;;8.10;;
50745;SDS011;36711;51.972;21.204;2022-12-15T00:42:26;20.00;;;7.50;;
50745;SDS011;36711;51.972;21.204;2022-12-15T00:44:56;21.60;;;9.60;;
50745;SDS011;36711;51.972;21.204;2022-12-15T00:47:25;17.50;;;8.80;;
50745;SDS011;36711;51.972;21.204;2022-12-15T00:49:54;16.10;;;8.60;;
50745;SDS011;36711;51.972;21.204;2022-12-15T00:52:42;20.40;;;9.30;;
50745;SDS011;36711;51.972;21.204;2022-12-15T00:55:29;19.50;;;9.20;;
50745;SDS011;36711;51.972;21.204;2022-12-15T00:58:16;20.40;;;9.60;;
50745;SDS011;36711;51.972;21.204;2022-12-15T01:01:05;19.10;;;8.70;;
50745;SDS011;36711;51.972;21.204;2022-12-15T01:03:53;18.00;;;8.30;;
50745;SDS011;36711;51.972;21.204;2022-12-15T01:06:41;22.60;;;9.00;;
50745;SDS011;36711;51.972;21.204;2022-12-15T01:09:28;20.20;;;8.20;;
50745;SDS011;36711;51.972;21.204;2022-12-15T01:12:15;18.00;;;8.90;;
50745;SDS011;36711;51.972;21.204;2022-12-15T01:15:03;18.80;;;8.80;;
50745;SDS011;36711;51.972;21.204;2022-12-15T01:17:50;22.60;;;10.00;;
50745;SDS011;36711;51.972;21.204;2022-12-15T01:20:37;21.20;;;9.70;;
50745;SDS011;36711;51.972;21.204;2022-12-15T01:23:06;18.00;;;8.50;;
50745;SDS011;36711;51.972;21.204;2022-12-15T01:25:35;28.30;;;10.00;;
50745;SDS011;36711;51.972;21.204;2022-12-15T01:28:05;17.40;;;9.40;;
50745;SDS011;36711;51.972;21.204;2022-12-15T01:30:34;19.10;;;9.30;;
50745;SDS011;36711;51.972;21.204;2022-12-15T01:33:03;23.10;;;9.50;;
50745;SDS011;36711;51.972;21.204;2022-12-15T01:35:32;19.40;;;9.60;;
50745;SDS011;36711;51.972;21.204;2022-12-15T01:38:01;19.60;;;10.00;;
50745;SDS011;36711;51.972;21.204;2022-12-15T01:40:29;24.10;;;9.50;;
50745;SDS011;36711;51.972;21.204;2022-12-15T01:43:15;23.50;;;9.30;;
50745;SDS011;36711;51.972;21.204;2022-12-15T01:45:51;19.50;;;9.20;;
50745;SDS011;36711;51.972;21.204;2022-12-15T01:51:03;19.40;;;9.50;;
50745;SDS011;36711;51.972;21.204;2022-12-15T01:53:34;20.50;;;9.30;;
50745;SDS011;36711;51.972;21.204;2022-12-15T01:56:05;22.60;;;9.30;;
50745;SDS011;36711;51.972;21.204;2022-12-15T01:58:36;18.60;;;9.30;;
50745;SDS011;36711;51.972;21.204;2022-12-15T02:01:05;19.90;;;9.60;;
50745;SDS011;36711;51.972;21.204;2022-12-15T02:03:34;19.30;;;9.60;;
50745;SDS011;36711;51.972;21.204;2022-12-15T02:06:04;21.30;;;9.40;;
50745;SDS011;36711;51.972;21.204;2022-12-15T02:08:33;20.30;;;9.40;;
50745;SDS011;36711;51.972;21.204;2022-12-15T02:21:45;15.50;;;7.40;;
50745;SDS011;36711;51.972;21.204;2022-12-15T02:27:11;19.70;;;8.60;;
50745;SDS011;36711;51.972;21.204;2022-12-15T02:32:30;17.80;;;8.80;;
50745;SDS011;36711;51.972;21.204;2022-12-15T02:35:02;24.20;;;9.40;;
50745;SDS011;36711;51.972;21.204;2022-12-15T02:37:37;25.40;;;9.60;;
50745;SDS011;36711;51.972;21.204;2022-12-15T02:40:07;17.90;;;8.30;;
50745;SDS011;36711;51.972;21.204;2022-12-15T02:42:38;15.50;;;8.20;;
50745;SDS011;36711;51.972;21.204;2022-12-15T03:00:58;15.40;;;7.60;;
50745;SDS011;36711;51.972;21.204;2022-12-15T03:03:28;19.00;;;8.20;;
50745;SDS011;36711;51.972;21.204;2022-12-15T03:05:59;16.00;;;8.20;;
50745;SDS011;36711;51.972;21.204;2022-12-15T03:08:29;16.40;;;8.00;;
50745;SDS011;36711;51.972;21.204;2022-12-15T03:10:58;16.00;;;8.30;;
50745;SDS011;36711;51.972;21.204;2022-12-15T03:13:27;18.00;;;8.00;;
50745;SDS011;36711;51.972;21.204;2022-12-15T03:15:58;16.60;;;8.30;;
50745;SDS011;36711;51.972;21.204;2022-12-15T03:18:27;15.30;;;8.10;;
50745;SDS011;36711;51.972;21.204;2022-12-15T03:20:56;20.00;;;8.70;;
50745;SDS011;36711;51.972;21.204;2022-12-15T03:23:25;14.80;;;8.10;;
50745;SDS011;36711;51.972;21.204;2022-12-15T03:25:53;12.80;;;6.70;;
50745;SDS011;36711;51.972;21.204;2022-12-15T03:28:23;17.80;;;8.10;;
50745;SDS011;36711;51.972;21.204;2022-12-15T03:30:51;20.70;;;8.40;;
50745;SDS011;36711;51.972;21.204;2022-12-15T03:33:20;15.90;;;7.80;;
50745;SDS011;36711;51.972;21.204;2022-12-15T03:35:49;14.60;;;8.00;;
50745;SDS011;36711;51.972;21.204;2022-12-15T03:38:18;17.50;;;8.20;;
50745;SDS011;36711;51.972;21.204;2022-12-15T03:40:47;17.10;;;8.80;;
50745;SDS011;36711;51.972;21.204;2022-12-15T03:43:16;14.20;;;7.80;;
50745;SDS011;36711;51.972;21.204;2022-12-15T03:45:45;20.00;;;7.80;;
50745;SDS011;36711;51.972;21.204;2022-12-15T03:48:14;15.60;;;7.70;;
50745;SDS011;36711;51.972;21.204;2022-12-15T03:50:43;17.70;;;8.50;;
50745;SDS011;36711;51.972;21.204;2022-12-15T03:53:12;17.20;;;8.70;;
50745;SDS011;36711;51.972;21.204;2022-12-15T03:55:41;19.50;;;8.70;;
50745;SDS011;36711;51.972;21.204;2022-12-15T03:58:10;16.70;;;8.60;;
50745;SDS011;36711;51.972;21.204;2022-12-15T04:00:38;21.20;;;9.60;;
50745;SDS011;36711;51.972;21.204;2022-12-15T04:03:08;18.10;;;8.70;;
50745;SDS011;36711;51.972;21.204;2022-12-15T04:05:38;16.20;;;8.40;;
50745;SDS011;36711;51.972;21.204;2022-12-15T04:08:07;18.80;;;9.90;;
50745;SDS011;36711;51.972;21.204;2022-12-15T04:10:36;21.80;;;10.00;;
50745;SDS011;36711;51.972;21.204;2022-12-15T04:13:06;20.20;;;8.70;;
50745;SDS011;36711;51.972;21.204;2022-12-15T04:15:36;24.90;;;10.40;;
50745;SDS011;36711;51.972;21.204;2022-12-15T04:18:05;22.80;;;10.50;;
50745;SDS011;36711;51.972;21.204;2022-12-15T04:20:34;22.80;;;10.50;;
50745;SDS011;36711;51.972;21.204;2022-12-15T04:23:03;24.00;;;10.00;;
50745;SDS011;36711;51.972;21.204;2022-12-15T04:25:35;19.20;;;9.30;;
50745;SDS011;36711;51.972;21.204;2022-12-15T04:28:23;19.30;;;8.20;;
50745;SDS011;36711;51.972;21.204;2022-12-15T04:31:11;19.20;;;9.00;;
50745;SDS011;36711;51.972;21.204;2022-12-15T04:34:03;22.00;;;8.60;;
50745;SDS011;36711;51.972;21.204;2022-12-15T04:36:51;22.40;;;9.90;;
50745;SDS011;36711;51.972;21.204;2022-12-15T04:39:40;21.50;;;9.80;;
50745;SDS011;36711;51.972;21.204;2022-12-15T04:42:29;18.40;;;9.00;;
50745;SDS011;36711;51.972;21.204;2022-12-15T04:45:17;20.20;;;8.90;;
50745;SDS011;36711;51.972;21.204;2022-12-15T04:48:06;30.00;;;12.10;;
50745;SDS011;36711;51.972;21.204;2022-12-15T04:50:53;25.30;;;10.40;;
50745;SDS011;36711;51.972;21.204;2022-12-15T04:53:43;18.40;;;8.30;;
50745;SDS011;36711;51.972;21.204;2022-12-15T04:56:31;23.80;;;10.60;;
50745;SDS011;36711;51.972;21.204;2022-12-15T04:59:19;32.30;;;11.60;;
50745;SDS011;36711;51.972;21.204;2022-12-15T05:02:06;33.50;;;14.30;;
50745;SDS011;36711;51.972;21.204;2022-12-15T05:04:54;39.20;;;15.40;;
50745;SDS011;36711;51.972;21.204;2022-12-15T05:07:42;35.90;;;13.50;;
50745;SDS011;36711;51.972;21.204;2022-12-15T05:10:29;21.40;;;10.20;;
50745;SDS011;36711;51.972;21.204;2022-12-15T05:13:16;22.60;;;9.40;;
50745;SDS011;36711;51.972;21.204;2022-12-15T05:16:04;21.30;;;10.70;;
50745;SDS011;36711;51.972;21.204;2022-12-15T05:18:51;23.70;;;11.10;;
50745;SDS011;36711;51.972;21.204;2022-12-15T05:21:39;20.70;;;9.90;;
50745;SDS011;36711;51.972;21.204;2022-12-15T05:24:27;18.70;;;9.20;;
50745;SDS011;36711;51.972;21.204;2022-12-15T05:27:14;19.60;;;8.80;;
50745;SDS011;36711;51.972;21.204;2022-12-15T05:30:02;26.70;;;10.70;;
50745;SDS011;36711;51.972;21.204;2022-12-15T05:32:49;23.90;;;11.30;;
50745;SDS011;36711;51.972;21.204;2022-12-15T05:35:18;23.30;;;10.50;;
50745;SDS011;36711;51.972;21.204;2022-12-15T05:37:47;22.10;;;11.90;;
50745;SDS011;36711;51.972;21.204;2022-12-15T05:40:16;26.20;;;13.60;;
50745;SDS011;36711;51.972;21.204;2022-12-15T05:42:44;21.60;;;11.10;;
50745;SDS011;36711;51.972;21.204;2022-12-15T05:45:17;20.30;;;11.00;;
50745;SDS011;36711;51.972;21.204;2022-12-15T05:47:49;24.50;;;12.60;;
50745;SDS011;36711;51.972;21.204;2022-12-15T05:50:18;23.00;;;11.40;;
50745;SDS011;36711;51.972;21.204;2022-12-15T05:52:47;28.90;;;12.80;;
50745;SDS011;36711;51.972;21.204;2022-12-15T05:55:19;26.90;;;12.00;;
50745;SDS011;36711;51.972;21.204;2022-12-15T05:57:51;25.30;;;11.80;;
50745;SDS011;36711;51.972;21.204;2022-12-15T06:00:20;27.50;;;12.00;;
50745;SDS011;36711;51.972;21.204;2022-12-15T06:02:49;24.30;;;11.80;;
50745;SDS011;36711;51.972;21.204;2022-12-15T06:05:18;25.70;;;11.70;;
50745;SDS011;36711;51.972;21.204;2022-12-15T06:07:47;22.60;;;11.40;;
50745;SDS011;36711;51.972;21.204;2022-12-15T06:10:16;29.10;;;12.00;;
50745;SDS011;36711;51.972;21.204;2022-12-15T06:12:44;26.50;;;11.70;;
50745;SDS011;36711;51.972;21.204;2022-12-15T06:15:13;29.80;;;12.60;;
50745;SDS011;36711;51.972;21.204;2022-12-15T06:17:42;65.20;;;23.50;;
50745;SDS011;36711;51.972;21.204;2022-12-15T06:20:17;81.40;;;38.10;;
50745;SDS011;36711;51.972;21.204;2022-12-15T06:22:46;37.20;;;19.80;;
50745;SDS011;36711;51.972;21.204;2022-12-15T06:25:17;25.90;;;13.60;;
50745;SDS011;36711;51.972;21.204;2022-12-15T06:27:46;29.10;;;16.00;;
50745;SDS011;36711;51.972;21.204;2022-12-15T06:30:15;29.30;;;16.90;;
50745;SDS011;36711;51.972;21.204;2022-12-15T06:32:44;30.10;;;13.30;;
50745;SDS011;36711;51.972;21.204;2022-12-15T06:35:17;28.60;;;14.50;;
50745;SDS011;36711;51.972;21.204;2022-12-15T06:37:46;28.10;;;14.80;;
50745;SDS011;36711;51.972;21.204;2022-12-15T06:40:14;25.10;;;13.20;;
50745;SDS011;36711;51.972;21.204;2022-12-15T06:42:43;29.20;;;13.20;;
50745;SDS011;36711;51.972;21.204;2022-12-15T06:45:12;37.00;;;18.00;;
50745;SDS011;36711;51.972;21.204;2022-12-15T06:47:41;31.80;;;16.10;;
50745;SDS011;36711;51.972;21.204;2022-12-15T06:50:09;24.70;;;12.00;;
50745;SDS011;36711;51.972;21.204;2022-12-15T06:52:38;31.60;;;12.00;;
50745;SDS011;36711;51.972;21.204;2022-12-15T06:55:07;30.10;;;11.50;;
50745;SDS011;36711;51.972;21.204;2022-12-15T06:57:36;24.70;;;11.70;;
50745;SDS011;36711;51.972;21.204;2022-12-15T07:00:06;28.20;;;12.80;;
50745;SDS011;36711;51.972;21.204;2022-12-15T07:02:35;21.60;;;10.70;;
50745;SDS011;36711;51.972;21.204;2022-12-15T07:05:04;22.40;;;9.90;;
50745;SDS011;36711;51.972;21.204;2022-12-15T07:07:33;22.70;;;11.10;;
50745;SDS011;36711;51.972;21.204;2022-12-15T07:10:02;23.70;;;10.90;;
50745;SDS011;36711;51.972;21.204;2022-12-15T07:12:31;21.70;;;11.40;;
50745;SDS011;36711;51.972;21.204;2022-12-15T07:14:59;26.90;;;13.20;;
50745;SDS011;36711;51.972;21.204;2022-12-15T07:17:28;27.30;;;12.00;;
50745;SDS011;36711;51.972;21.204;2022-12-15T07:19:57;22.50;;;11.40;;
50745;SDS011;36711;51.972;21.204;2022-12-15T07:22:27;28.10;;;13.50;;
50745;SDS011;36711;51.972;21.204;2022-12-15T07:24:55;27.70;;;12.80;;
50745;SDS011;36711;51.972;21.204;2022-12-15T07:27:24;37.70;;;14.60;;
50745;SDS011;36711;51.972;21.204;2022-12-15T07:29:53;27.30;;;12.20;;
50745;SDS011;36711;51.972;21.204;2022-12-15T07:32:22;26.70;;;12.90;;
50745;SDS011;36711;51.972;21.204;2022-12-15T07:34:50;27.80;;;14.10;;
50745;SDS011;36711;51.972;21.204;2022-12-15T07:37:19;29.50;;;13.90;;
50745;SDS011;36711;51.972;21.204;2022-12-15T07:39:48;35.90;;;14.60;;
50745;SDS011;36711;51.972;21.204;2022-12-15T07:42:17;32.40;;;13.50;;
50745;SDS011;36711;51.972;21.204;2022-12-15T07:44:47;36.90;;;14.80;;
50745;SDS011;36711;51.972;21.204;2022-12-15T07:47:17;34.40;;;14.30;;
50745;SDS011;36711;51.972;21.204;2022-12-15T07:49:46;32.20;;;15.20;;
50745;SDS011;36711;51.972;21.204;2022-12-15T07:52:15;34.10;;;15.00;;
50745;SDS011;36711;51.972;21.204;2022-12-15T07:54:44;29.90;;;14.20;;
50745;SDS011;36711;51.972;21.204;2022-12-15T07:57:13;31.60;;;15.00;;
50745;SDS011;36711;51.972;21.204;2022-12-15T07:59:42;37.50;;;15.20;;
50745;SDS011;36711;51.972;21.204;2022-12-15T08:02:11;42.30;;;16.10;;
50745;SDS011;36711;51.972;21.204;2022-12-15T08:04:40;38.50;;;15.40;;
50745;SDS011;36711;51.972;21.204;2022-12-15T08:07:09;39.60;;;17.10;;
50745;SDS011;36711;51.972;21.204;2022-12-15T08:09:38;31.30;;;13.60;;
50745;SDS011;36711;51.972;21.204;2022-12-15T08:12:07;36.40;;;15.60;;
50745;SDS011;36711;51.972;21.204;2022-12-15T08:14:36;43.70;;;16.40;;
50745;SDS011;36711;51.972;21.204;2022-12-15T08:17:05;45.20;;;17.80;;
50745;SDS011;36711;51.972;21.204;2022-12-15T08:19:34;39.20;;;16.30;;
50745;SDS011;36711;51.972;21.204;2022-12-15T08:22:02;42.70;;;18.30;;
50745;SDS011;36711;51.972;21.204;2022-12-15T08:24:31;44.90;;;18.00;;
50745;SDS011;36711;51.972;21.204;2022-12-15T08:27:00;38.80;;;16.60;;
50745;SDS011;36711;51.972;21.204;2022-12-15T08:29:29;41.80;;;16.80;;
50745;SDS011;36711;51.972;21.204;2022-12-15T08:32:18;39.30;;;16.10;;
50745;SDS011;36711;51.972;21.204;2022-12-15T08:34:47;35.90;;;16.30;;
50745;SDS011;36711;51.972;21.204;2022-12-15T08:37:16;37.30;;;17.40;;
50745;SDS011;36711;51.972;21.204;2022-12-15T08:39:45;31.90;;;15.30;;
50745;SDS011;36711;51.972;21.204;2022-12-15T08:42:15;40.40;;;19.10;;
50745;SDS011;36711;51.972;21.204;2022-12-15T08:44:46;36.00;;;17.00;;
50745;SDS011;36711;51.972;21.204;2022-12-15T08:47:15;40.60;;;17.40;;
50745;SDS011;36711;51.972;21.204;2022-12-15T08:49:44;40.50;;;17.20;;
50745;SDS011;36711;51.972;21.204;2022-12-15T08:52:13;37.20;;;16.30;;
50745;SDS011;36711;51.972;21.204;2022-12-15T08:54:42;37.40;;;17.20;;
50745;SDS011;36711;51.972;21.204;2022-12-15T08:57:10;37.30;;;15.60;;
50745;SDS011;36711;51.972;21.204;2022-12-15T08:59:39;41.70;;;19.60;;
50745;SDS011;36711;51.972;21.204;2022-12-15T09:02:08;37.80;;;17.70;;
50745;SDS011;36711;51.972;21.204;2022-12-15T09:04:38;30.70;;;14.80;;
50745;SDS011;36711;51.972;21.204;2022-12-15T09:07:08;40.10;;;17.30;;
50745;SDS011;36711;51.972;21.204;2022-12-15T09:09:37;40.70;;;19.50;;
50745;SDS011;36711;51.972;21.204;2022-12-15T09:12:06;39.60;;;18.50;;
50745;SDS011;36711;51.972;21.204;2022-12-15T09:14:34;37.30;;;17.20;;
50745;SDS011;36711;51.972;21.204;2022-12-15T09:17:03;45.00;;;18.70;;
50745;SDS011;36711;51.972;21.204;2022-12-15T09:19:32;40.20;;;19.00;;
50745;SDS011;36711;51.972;21.204;2022-12-15T09:22:02;43.30;;;21.70;;
50745;SDS011;36711;51.972;21.204;2022-12-15T09:24:32;37.20;;;18.70;;
50745;SDS011;36711;51.972;21.204;2022-12-15T09:27:03;36.50;;;18.70;;
50745;SDS011;36711;51.972;21.204;2022-12-15T09:29:31;37.40;;;17.80;;
50745;SDS011;36711;51.972;21.204;2022-12-15T09:32:00;34.60;;;17.70;;
50745;SDS011;36711;51.972;21.204;2022-12-15T09:34:29;36.00;;;15.40;;
50745;SDS011;36711;51.972;21.204;2022-12-15T09:36:58;31.70;;;15.30;;
50745;SDS011;36711;51.972;21.204;2022-12-15T09:39:27;37.70;;;16.90;;
50745;SDS011;36711;51.972;21.204;2022-12-15T09:41:57;37.00;;;18.20;;
50745;SDS011;36711;51.972;21.204;2022-12-15T09:44:27;35.10;;;17.60;;
50745;SDS011;36711;51.972;21.204;2022-12-15T09:47:15;34.70;;;16.50;;
50745;SDS011;36711;51.972;21.204;2022-12-15T09:49:55;36.40;;;16.70;;
50745;SDS011;36711;51.972;21.204;2022-12-15T09:52:25;34.30;;;16.10;;
50745;SDS011;36711;51.972;21.204;2022-12-15T09:54:55;25.50;;;12.80;;
50745;SDS011;36711;51.972;21.204;2022-12-15T09:57:39;31.80;;;14.60;;
50745;SDS011;36711;51.972;21.204;2022-12-15T10:00:15;33.00;;;15.00;;
50745;SDS011;36711;51.972;21.204;2022-12-15T10:02:49;34.90;;;16.90;;
50745;SDS011;36711;51.972;21.204;2022-12-15T10:08:11;34.30;;;15.20;;
50745;SDS011;36711;51.972;21.204;2022-12-15T10:13:18;37.90;;;17.30;;
50745;SDS011;36711;51.972;21.204;2022-12-15T10:15:58;36.70;;;15.70;;
50745;SDS011;36711;51.972;21.204;2022-12-15T10:18:31;36.00;;;15.20;;
50745;SDS011;36711;51.972;21.204;2022-12-15T10:21:03;42.10;;;17.50;;
50745;SDS011;36711;51.972;21.204;2022-12-15T10:23:32;39.00;;;17.20;;
50745;SDS011;36711;51.972;21.204;2022-12-15T10:31:16;33.30;;;15.40;;
50745;SDS011;36711;51.972;21.204;2022-12-15T10:33:47;36.30;;;16.20;;
50745;SDS011;36711;51.972;21.204;2022-12-15T10:36:18;36.50;;;15.30;;
50745;SDS011;36711;51.972;21.204;2022-12-15T10:38:47;32.70;;;15.90;;
50745;SDS011;36711;51.972;21.204;2022-12-15T10:41:22;38.40;;;16.20;;
50745;SDS011;36711;51.972;21.204;2022-12-15T10:43:51;35.00;;;17.10;;
50745;SDS011;36711;51.972;21.204;2022-12-15T10:46:23;35.10;;;16.40;;
50745;SDS011;36711;51.972;21.204;2022-12-15T10:51:34;37.00;;;16.80;;
50745;SDS011;36711;51.972;21.204;2022-12-15T10:56:57;38.00;;;16.00;;
50745;SDS011;36711;51.972;21.204;2022-12-15T10:59:33;35.70;;;16.10;;
50745;SDS011;36711;51.972;21.204;2022-12-15T11:05:15;34.10;;;16.00;;
50745;SDS011;36711;51.972;21.204;2022-12-15T11:07:54;37.20;;;16.60;;
50745;SDS011;36711;51.972;21.204;2022-12-15T11:10:25;40.10;;;16.30;;
50745;SDS011;36711;51.972;21.204;2022-12-15T11:12:56;37.10;;;16.70;;
50745;SDS011;36711;51.972;21.204;2022-12-15T11:15:31;63.80;;;25.80;;
50745;SDS011;36711;51.972;21.204;2022-12-15T11:20:49;35.60;;;16.10;;
50745;SDS011;36711;51.972;21.204;2022-12-15T11:23:27;39.70;;;17.90;;
50745;SDS011;36711;51.972;21.204;2022-12-15T11:25:59;38.00;;;18.80;;
50745;SDS011;36711;51.972;21.204;2022-12-15T11:28:42;40.00;;;18.80;;
50745;SDS011;36711;51.972;21.204;2022-12-15T11:33:55;41.90;;;18.90;;
50745;SDS011;36711;51.972;21.204;2022-12-15T11:39:15;37.20;;;16.30;;
50745;SDS011;36711;51.972;21.204;2022-12-15T11:41:52;41.70;;;17.50;;
50745;SDS011;36711;51.972;21.204;2022-12-15T12:00:19;45.10;;;18.90;;
50745;SDS011;36711;51.972;21.204;2022-12-15T12:05:36;40.10;;;17.70;;
50745;SDS011;36711;51.972;21.204;2022-12-15T12:08:15;40.10;;;17.60;;
50745;SDS011;36711;51.972;21.204;2022-12-15T12:21:38;38.70;;;16.80;;
50745;SDS011;36711;51.972;21.204;2022-12-15T12:26:42;44.10;;;17.40;;
50745;SDS011;36711;51.972;21.204;2022-12-15T12:29:20;42.10;;;17.10;;
50745;SDS011;36711;51.972;21.204;2022-12-15T12:34:31;40.60;;;16.80;;
50745;SDS011;36711;51.972;21.204;2022-12-15T12:37:12;44.90;;;18.20;;
50745;SDS011;36711;51.972;21.204;2022-12-15T12:39:44;46.60;;;17.20;;
50745;SDS011;36711;51.972;21.204;2022-12-15T12:42:18;39.10;;;16.70;;
50745;SDS011;36711;51.972;21.204;2022-12-15T12:44:48;45.20;;;16.90;;
50745;SDS011;36711;51.972;21.204;2022-12-15T12:47:25;44.40;;;17.70;;
50745;SDS011;36711;51.972;21.204;2022-12-15T12:50:03;40.30;;;17.40;;
50745;SDS011;36711;51.972;21.204;2022-12-15T12:52:35;43.90;;;16.80;;
50745;SDS011;36711;51.972;21.204;2022-12-15T12:57:42;40.90;;;17.40;;
50745;SDS011;36711;51.972;21.204;2022-12-15T13:00:13;44.40;;;18.90;;
50745;SDS011;36711;51.972;21.204;2022-12-15T13:02:44;43.80;;;18.00;;
50745;SDS011;36711;51.972;21.204;2022-12-15T13:10:33;44.60;;;17.70;;
50745;SDS011;36711;51.972;21.204;2022-12-15T13:15:50;45.50;;;17.30;;
50745;SDS011;36711;51.972;21.204;2022-12-15T13:18:26;40.00;;;16.70;;
50745;SDS011;36711;51.972;21.204;2022-12-15T13:20:56;43.00;;;17.80;;
50745;SDS011;36711;51.972;21.204;2022-12-15T13:34:00;42.70;;;17.00;;
50745;SDS011;36711;51.972;21.204;2022-12-15T13:44:46;43.70;;;16.60;;
50745;SDS011;36711;51.972;21.204;2022-12-15T13:47:19;51.30;;;17.40;;
50745;SDS011;36711;51.972;21.204;2022-12-15T13:50:11;41.30;;;16.80;;
50745;SDS011;36711;51.972;21.204;2022-12-15T13:52:51;41.40;;;16.40;;
50745;SDS011;36711;51.972;21.204;2022-12-15T13:55:49;43.80;;;17.40;;
50745;SDS011;36711;51.972;21.204;2022-12-15T13:58:19;46.70;;;18.50;;
50745;SDS011;36711;51.972;21.204;2022-12-15T14:00:50;42.50;;;17.40;;
50745;SDS011;36711;51.972;21.204;2022-12-15T14:03:19;38.50;;;16.80;;
50745;SDS011;36711;51.972;21.204;2022-12-15T14:05:49;40.80;;;16.80;;
50745;SDS011;36711;51.972;21.204;2022-12-15T14:08:19;39.20;;;16.20;;
50745;SDS011;36711;51.972;21.204;2022-12-15T14:10:50;43.60;;;17.40;;
50745;SDS011;36711;51.972;21.204;2022-12-15T14:18:36;52.50;;;18.90;;
50745;SDS011;36711;51.972;21.204;2022-12-15T14:21:20;43.70;;;17.40;;
50745;SDS011;36711;51.972;21.204;2022-12-15T14:23:49;41.40;;;17.90;;
50745;SDS011;36711;51.972;21.204;2022-12-15T14:26:39;40.90;;;17.10;;
50745;SDS011;36711;51.972;21.204;2022-12-15T14:29:08;48.20;;;17.50;;
50745;SDS011;36711;51.972;21.204;2022-12-15T14:31:37;39.60;;;16.80;;
50745;SDS011;36711;51.972;21.204;2022-12-15T14:34:11;38.50;;;16.30;;
50745;SDS011;36711;51.972;21.204;2022-12-15T14:36:42;39.30;;;15.90;;
50745;SDS011;36711;51.972;21.204;2022-12-15T14:39:22;115.60;;;31.90;;
50745;SDS011;36711;51.972;21.204;2022-12-15T14:41:51;34.30;;;15.60;;
50745;SDS011;36711;51.972;21.204;2022-12-15T14:47:07;35.00;;;14.60;;
50745;SDS011;36711;51.972;21.204;2022-12-15T14:49:43;31.30;;;14.10;;
50745;SDS011;36711;51.972;21.204;2022-12-15T14:52:26;31.10;;;13.50;;
50745;SDS011;36711;51.972;21.204;2022-12-15T14:54:57;36.40;;;15.10;;
50745;SDS011;36711;51.972;21.204;2022-12-15T14:57:28;32.00;;;12.60;;
50745;SDS011;36711;51.972;21.204;2022-12-15T15:00:50;34.70;;;14.10;;
50745;SDS011;36711;51.972;21.204;2022-12-15T15:03:09;154.40;;;35.90;;
50745;SDS011;36711;51.972;21.204;2022-12-15T15:08:23;35.00;;;14.50;;
50745;SDS011;36711;51.972;21.204;2022-12-15T15:10:53;40.00;;;15.30;;
50745;SDS011;36711;51.972;21.204;2022-12-15T15:13:24;42.20;;;16.40;;
50745;SDS011;36711;51.972;21.204;2022-12-15T15:15:55;41.20;;;17.00;;
50745;SDS011;36711;51.972;21.204;2022-12-15T15:18:25;37.90;;;16.10;;
50745;SDS011;36711;51.972;21.204;2022-12-15T15:20:57;34.50;;;15.30;;
50745;SDS011;36711;51.972;21.204;2022-12-15T15:23:27;36.50;;;16.60;;
50745;SDS011;36711;51.972;21.204;2022-12-15T15:26:06;45.50;;;17.00;;
50745;SDS011;36711;51.972;21.204;2022-12-15T15:28:39;47.20;;;16.50;;
50745;SDS011;36711;51.972;21.204;2022-12-15T15:33:53;33.50;;;12.90;;
50745;SDS011;36711;51.972;21.204;2022-12-15T15:36:31;30.60;;;12.90;;
50745;SDS011;36711;51.972;21.204;2022-12-15T15:39:01;34.60;;;14.70;;
50745;SDS011;36711;51.972;21.204;2022-12-15T15:41:31;34.90;;;14.40;;
50745;SDS011;36711;51.972;21.204;2022-12-15T15:44:01;37.90;;;14.30;;
50745;SDS011;36711;51.972;21.204;2022-12-15T15:46:30;28.90;;;13.10;;
50745;SDS011;36711;51.972;21.204;2022-12-15T15:51:29;49.50;;;16.90;;
50745;SDS011;36711;51.972;21.204;2022-12-15T15:53:59;64.60;;;25.80;;
50745;SDS011;36711;51.972;21.204;2022-12-15T15:56:29;101.00;;;42.50;;
50745;SDS011;36711;51.972;21.204;2022-12-15T15:58:59;88.70;;;33.50;;
50745;SDS011;36711;51.972;21.204;2022-12-15T16:01:30;44.80;;;19.80;;
50745;SDS011;36711;51.972;21.204;2022-12-15T16:03:59;40.60;;;18.10;;
50745;SDS011;36711;51.972;21.204;2022-12-15T16:06:28;60.20;;;37.30;;
50745;SDS011;36711;51.972;21.204;2022-12-15T16:08:57;36.50;;;15.40;;
50745;SDS011;36711;51.972;21.204;2022-12-15T16:11:27;36.80;;;15.90;;
50745;SDS011;36711;51.972;21.204;2022-12-15T16:13:56;45.20;;;16.50;;
50745;SDS011;36711;51.972;21.204;2022-12-15T16:16:31;37.50;;;14.90;;
50745;SDS011;36711;51.972;21.204;2022-12-15T16:19:01;43.00;;;16.80;;
50745;SDS011;36711;51.972;21.204;2022-12-15T16:21:31;36.60;;;16.40;;
50745;SDS011;36711;51.972;21.204;2022-12-15T16:24:01;39.30;;;17.30;;
50745;SDS011;36711;51.972;21.204;2022-12-15T16:26:33;46.00;;;18.00;;
50745;SDS011;36711;51.972;21.204;2022-12-15T16:29:09;41.20;;;16.20;;
50745;SDS011;36711;51.972;21.204;2022-12-15T16:31:40;32.40;;;15.60;;
50745;SDS011;36711;51.972;21.204;2022-12-15T16:34:14;34.10;;;15.00;;
50745;SDS011;36711;51.972;21.204;2022-12-15T16:36:46;35.00;;;15.40;;
50745;SDS011;36711;51.972;21.204;2022-12-15T16:41:50;37.10;;;15.90;;
50745;SDS011;36711;51.972;21.204;2022-12-15T16:44:19;41.20;;;16.50;;
50745;SDS011;36711;51.972;21.204;2022-12-15T16:46:48;37.70;;;16.30;;
50745;SDS011;36711;51.972;21.204;2022-12-15T16:49:17;39.20;;;15.80;;
50745;SDS011;36711;51.972;21.204;2022-12-15T16:51:50;41.40;;;16.80;;
50745;SDS011;36711;51.972;21.204;2022-12-15T16:56:48;38.00;;;16.40;;
50745;SDS011;36711;51.972;21.204;2022-12-15T16:59:21;42.10;;;17.20;;
50745;SDS011;36711;51.972;21.204;2022-12-15T17:02:04;42.60;;;17.80;;
50745;SDS011;36711;51.972;21.204;2022-12-15T17:04:43;48.50;;;18.70;;
50745;SDS011;36711;51.972;21.204;2022-12-15T17:07:12;48.00;;;18.90;;
50745;SDS011;36711;51.972;21.204;2022-12-15T17:09:48;46.40;;;18.80;;
50745;SDS011;36711;51.972;21.204;2022-12-15T17:12:17;51.80;;;19.90;;
50745;SDS011;36711;51.972;21.204;2022-12-15T17:14:46;46.90;;;18.90;;